Flight Track Log - Related Links

Times and Time Zones

All times are in EDT time to prevent confusion due to time zone crossing. See the TRS886 flight status page for this flight to view local times or setup timezone preferences in your user account.

Time Position Orientation Groundspeed Altitude Reporting Facility
EDT Latitude Longitude Course Direction KTS MPH feet Rate Location/Type
Fri 02:08:23 PM 28.4167 -81.3167 204° Southwest 169 194 800  Level Orlando TRACON
Fri 02:09:41 PM 28.3500 -81.3500 204° Southwest 270 311 3,000 2,095 Climbing Orlando TRACON
Fri 02:10:29 PM 28.3167 -81.4000 233° Southwest 279 321 5,200 2,817 Climbing Orlando TRACON
Fri 02:11:36 PM 28.3167 -81.5000 270° West 282 325 8,400 2,158 Climbing Orlando TRACON
Fri 02:13:52 PM 28.3364 -81.7064 276° West 314 361 12,500 1,622 Climbing Jacksonville Center
Fri 02:14:52 PM 28.3478 -81.8217 276° West 344 396 13,700 1,800 Climbing Jacksonville Center
Fri 02:15:52 PM 28.3592 -81.9442 276° West 370 426 16,100 2,100 Climbing Jacksonville Center
Fri 02:16:52 PM 28.3706 -82.0669 276° West 389 448 17,900 1,850 Climbing Jacksonville Center
Fri 02:17:52 PM 28.3817 -82.1894 276° West 395 455 19,800 1,600 Climbing Jacksonville Center
Fri 02:18:52 PM 28.3908 -82.3169 275° West 400 460 21,100 1,150 Climbing Jacksonville Center
Fri 02:19:52 PM 28.3994 -82.4514 274° West 412 474 22,100 1,100 Climbing Jacksonville Center
Fri 02:20:52 PM 28.4625 -82.5572 304° West 402 463 23,300 1,200 Climbing Jacksonville Center
Fri 02:21:52 PM 28.5608 -82.6325 326° Northwest 395 455 24,500 1,100 Climbing Jacksonville Center
Fri 02:22:52 PM 28.6611 -82.7128 325° Northwest 417 480 25,500 1,000 Climbing Jacksonville Center
Fri 02:23:52 PM 28.7739 -82.7956 327° Northwest 429 494 26,500 950 Climbing Jacksonville Center
Fri 02:24:52 PM 28.8825 -82.8736 328° Northwest 442 509 27,400 750 Climbing Jacksonville Center
Fri 02:25:52 PM 28.9889 -82.9519 327° Northwest 453 521 28,000 650 Climbing Jacksonville Center
Fri 02:26:52 PM 29.0975 -83.0281 329° Northwest 463 533 28,700 800 Climbing Jacksonville Center
Fri 02:27:52 PM 29.2058 -83.1067 328° Northwest 463 533 29,600 950 Climbing Jacksonville Center
Fri 02:28:52 PM 29.3100 -83.1831 327° Northwest 456 525 30,600 1,100 Climbing Jacksonville Center
Fri 02:29:52 PM 29.4142 -83.2597 327° Northwest 451 519 31,800 700 Climbing Jacksonville Center
Fri 02:30:52 PM 29.5164 -83.3342 328° Northwest 451 519 32,000 100 Climbing Jacksonville Center
Fri 02:31:52 PM 29.6203 -83.4111 327° Northwest 440 506 32,000  Level Jacksonville Center
Fri 02:32:52 PM 29.7222 -83.4833 328° Northwest 440 506 32,000  Level Jacksonville Center
Fri 02:33:52 PM 29.8264 -83.5558 329° Northwest 440 506 32,000  Level Jacksonville Center
Fri 02:34:52 PM 29.9261 -83.6331 326° Northwest 435 501 32,000  Level Jacksonville Center
Fri 02:35:52 PM 30.0258 -83.7058 328° Northwest 435 501 32,000  Level Jacksonville Center
Fri 02:36:52 PM 30.1297 -83.7811 328° Northwest 435 501 32,000  Level Jacksonville Center
Fri 02:37:52 PM 30.2317 -83.8567 327° Northwest 435 501 32,000  Level Jacksonville Center
Fri 02:38:52 PM 30.3333 -83.9322 327° Northwest 435 501 32,000  Level Jacksonville Center
Fri 02:39:52 PM 30.4350 -84.0056 328° Northwest 435 501 32,000  Level Jacksonville Center
Fri 02:40:52 PM 30.5367 -84.0817 327° Northwest 435 501 32,000  Level Jacksonville Center
Fri 02:41:52 PM 30.6214 -84.1503 325° Northwest 430 495 32,000  Level Jacksonville Center
Fri 02:42:52 PM 30.7253 -84.2242 329° Northwest 430 495 32,000  Level Jacksonville Center
Fri 02:43:52 PM 30.8286 -84.3031 327° Northwest 435 501 32,000  Level Jacksonville Center
Fri 02:44:52 PM 30.9322 -84.3819 327° Northwest 435 501 32,000  Level Jacksonville Center
Fri 02:45:52 PM 31.0314 -84.4589 326° Northwest 435 501 32,000  Level Jacksonville Center
Fri 02:47:32 PM 31.2069 -84.5925 327° Northwest 458 527 32,000  Level Atlanta Center
Fri 02:48:32 PM 31.3108 -84.6708 327° Northwest 458 527 32,000  Level Atlanta Center
Fri 02:49:32 PM 31.4147 -84.7494 327° Northwest 458 527 32,000  Level Atlanta Center
Fri 02:50:32 PM 31.5228 -84.8331 327° Northwest 463 533 32,000  Level Atlanta Center
Fri 02:51:32 PM 31.6308 -84.9119 328° Northwest 463 533 32,000  Level Atlanta Center
Fri 02:52:32 PM 31.7344 -84.9961 325° Northwest 458 527 32,000  Level Atlanta Center
Fri 02:53:32 PM 31.8403 -85.0778 327° Northwest 458 527 32,000  Level Atlanta Center
Fri 02:54:32 PM 31.9586 -85.1625 329° Northwest 458 527 32,000  Level Atlanta Center
Fri 02:55:32 PM 32.0642 -85.2422 327° Northwest 458 527 32,000  Level Atlanta Center
Fri 02:56:32 PM 32.1700 -85.3269 326° Northwest 458 527 32,000  Level Atlanta Center
Fri 02:57:32 PM 32.2733 -85.4097 326° Northwest 458 527 32,000  Level Atlanta Center
Fri 02:58:32 PM 32.3808 -85.4925 327° Northwest 458 527 32,000  Level Atlanta Center
Fri 02:59:32 PM 32.4761 -85.5653 327° Northwest 463 533 32,000  Level Atlanta Center
Fri 03:00:32 PM 32.5836 -85.6511 326° Northwest 463 533 32,000  Level Atlanta Center
Fri 03:01:32 PM 32.6889 -85.7319 327° Northwest 458 527 32,000  Level Atlanta Center
Fri 03:02:32 PM 32.7942 -85.8181 325° Northwest 463 533 32,000  Level Atlanta Center
Fri 03:03:32 PM 32.8994 -85.8992 327° Northwest 463 533 32,000  Level Atlanta Center
Fri 03:04:32 PM 33.0025 -85.9808 326° Northwest 456 525 32,000  Level Atlanta Center
Fri 03:05:32 PM 33.1075 -86.0650 326° Northwest 456 525 32,000  Level Atlanta Center
Fri 03:06:32 PM 33.2083 -86.1517 324° Northwest 456 525 32,000  Level Atlanta Center
Fri 03:07:32 PM 33.3133 -86.2361 326° Northwest 456 525 32,000 450 Level Atlanta Center
Fri 03:08:32 PM 33.4164 -86.3161 327° Northwest 456 525 32,900 900 Climbing Atlanta Center
Fri 03:09:32 PM 33.5192 -86.3983 326° Northwest 456 525 33,800 550 Climbing Atlanta Center
Fri 03:10:32 PM 33.6258 -86.4861 326° Northwest 442 509 34,000 100 Climbing Atlanta Center
Fri 03:11:32 PM 33.7306 -86.5717 326° Northwest 442 509 34,000  Level Atlanta Center
Fri 03:12:32 PM 33.8311 -86.6544 326° Northwest 442 509 34,000  Level Atlanta Center
Fri 03:14:08 PM 33.9939 -86.7872 326° Northwest 446 513 34,000  Level Memphis Center
Fri 03:15:08 PM 34.0967 -86.8706 326° Northwest 446 513 34,000  Level Memphis Center
Fri 03:16:08 PM 34.1886 -86.9497 325° Northwest 458 527 34,000  Level Memphis Center
Fri 03:17:08 PM 34.2931 -87.0361 326° Northwest 451 519 34,000  Level Memphis Center
Fri 03:18:08 PM 34.3933 -87.1203 325° Northwest 443 510 34,000  Level Memphis Center
Fri 03:19:08 PM 34.4936 -87.1997 327° Northwest 437 503 34,000  Level Memphis Center
Fri 03:20:08 PM 34.5936 -87.2867 324° Northwest 442 509 34,000  Level Memphis Center
Fri 03:21:08 PM 34.7067 -87.3786 326° Northwest 437 503 34,000  Level Memphis Center
Fri 03:22:08 PM 34.8067 -87.4636 325° Northwest 437 503 34,000  Level Memphis Center
Fri 03:23:08 PM 34.9067 -87.5464 326° Northwest 442 509 34,000  Level Memphis Center
Fri 03:24:08 PM 35.0086 -87.6342 325° Northwest 442 509 34,000  Level Memphis Center
Fri 03:25:08 PM 35.1128 -87.7222 325° Northwest 442 509 34,000  Level Memphis Center
Fri 03:26:08 PM 35.2083 -87.7981 327° Northwest 456 525 34,000  Level Memphis Center
Fri 03:27:08 PM 35.3103 -87.8864 325° Northwest 456 525 34,000  Level Memphis Center
Fri 03:28:08 PM 35.4119 -87.9778 324° Northwest 456 525 34,000  Level Memphis Center
Fri 03:29:08 PM 35.5158 -88.0664 325° Northwest 456 525 34,000  Level Memphis Center
Fri 03:30:08 PM 35.6197 -88.1478 328° Northwest 457 526 34,000  Level Memphis Center
Fri 03:31:08 PM 35.7233 -88.2372 325° Northwest 450 518 34,000  Level Memphis Center
Fri 03:32:08 PM 35.8250 -88.3267 325° Northwest 450 518 34,000  Level Memphis Center
Fri 03:33:08 PM 35.9264 -88.4164 324° Northwest 450 518 34,000  Level Memphis Center
Fri 03:34:08 PM 36.0258 -88.5039 325° Northwest 455 524 34,000  Level Memphis Center
Fri 03:35:09 PM 36.1314 -88.5942 325° Northwest 455 524 34,000  Level Memphis Center
Fri 03:36:09 PM 36.2306 -88.6794 325° Northwest 455 524 34,000  Level Memphis Center
Fri 03:37:08 PM 36.3361 -88.7725 325° Northwest 455 524 34,000  Level Memphis Center
Fri 03:38:08 PM 36.4372 -88.8633 324° Northwest 455 524 34,000  Level Memphis Center
Fri 03:39:09 PM 36.5403 -88.9519 325° Northwest 455 524 34,000  Level Memphis Center
Fri 03:40:08 PM 36.6394 -89.0433 324° Northwest 455 524 34,000  Level Memphis Center
Fri 03:41:08 PM 36.7425 -89.1347 325° Northwest 455 524 34,000  Level Memphis Center
Fri 03:42:08 PM 36.8411 -89.2239 324° Northwest 455 524 34,000 -1,033 Level Memphis Center
Fri 03:44:37 PM 37.0978 -89.4575 324° Northwest 448 516 30,400 -2,076 Descending Kansas City Center
Fri 03:45:39 PM 37.2019 -89.5522 324° Northwest 457 526 26,700 -2,129 Descending Kansas City Center
Fri 03:46:41 PM 37.3167 -89.6256 333° Northwest 461 531 26,000 -339 Descending Kansas City Center
Fri 03:47:43 PM 37.4364 -89.6872 338° Northwest 463 533 26,000 -339 Level Kansas City Center
Fri 03:48:45 PM 37.5553 -89.7536 336° Northwest 466 536 25,300 -726 Descending Kansas City Center
Fri 03:49:47 PM 37.6808 -89.8211 337° Northwest 461 531 24,500 -774 Descending Kansas City Center
Fri 03:50:49 PM 37.7964 -89.8861 336° Northwest 457 526 23,700 -1,790 Descending Kansas City Center
Fri 03:51:51 PM 37.9272 -89.9578 337° Northwest 445 512 20,800 -2,952 Descending Kansas City Center
Fri 03:52:53 PM 38.0361 -90.0167 337° Northwest 429 494 17,600 -2,806 Descending Kansas City Center
Fri 03:53:55 PM 38.1472 -90.0794 336° Northwest 417 480 15,000 -1,258 Descending Kansas City Center
Fri 03:54:57 PM 38.2506 -90.1358 337° Northwest 408 470 15,000  Level Kansas City Center
Fri 03:55:59 PM 38.3539 -90.1942 336° Northwest 407 468 15,000 -48 Level Kansas City Center
Fri 03:57:01 PM 38.4631 -90.2561 336° Northwest 410 472 14,900 -532 Descending Kansas City Center
Fri 03:58:03 PM 38.5592 -90.3100 336° Northwest 388 447 13,900 -1,680 Descending Kansas City Center
Fri 03:59:06 PM 38.6433 -90.3678 332° Northwest 370 426 11,400 -2,325 Descending Kansas City Center
Fri 03:59:23 PM 38.6667 -90.4167 301° West 351 404 10,800 -968 Descending Gateway (St. Louis) TRACON
Fri 04:00:08 PM 38.6894 -90.4747 297° West 346 398 10,400 -841 Descending Kansas City Center
Fri 04:01:10 PM 38.7294 -90.5719 298° West 286 329 9,300 -1,694 Descending Kansas City Center
Fri 04:02:12 PM 38.7603 -90.6386 301° West 232 267 6,900 -2,081 Descending Kansas City Center
Fri 04:03:14 PM 38.8064 -90.6911 318° Northwest 226 260 5,000 -1,065 Descending Kansas City Center
Fri 04:04:16 PM 38.8464 -90.6639 28° Northeast 200 230 4,700 -726 Descending Kansas City Center
Fri 04:05:18 PM 38.8494 -90.6000 86° East 187 215 3,500 -581 Descending Kansas City Center
Fri 04:06:20 PM 38.8381 -90.5419 104° East 174 200 3,500 -387 Level Kansas City Center
Fri 04:07:22 PM 38.8119 -90.4886 122° Southeast 177 204 2,700 -871 Descending Kansas City Center
Fri 04:08:24 PM 38.7825 -90.4289 122° Southeast 170 196 1,700 -871 Descending Kansas City Center
Fri 04:09:26 PM 38.7611 -90.3853 122° Southeast 156 180 900 -581 Descending Kansas City Center
Fri 04:10:28 PM 38.7422 -90.3456 121° Southeast 151 174 500 -387 Descending Kansas City Center

Login

Don't have an account? Register now (free) for customized features, flight alerts, and more!